sensor_id;sensor_type;location;lat;lon;timestamp;pressure;altitude;pressure_sealevel;temperature;humidity
17054;BME280;8643;48.824;11.422;2023-03-31T00:01:28;96452.88;;;3.69;100.00
17054;BME280;8643;48.824;11.422;2023-03-31T00:03:56;96452.75;;;3.60;100.00
17054;BME280;8643;48.824;11.422;2023-03-31T00:06:34;96443.72;;;3.51;100.00
17054;BME280;8643;48.824;11.422;2023-03-31T00:09:06;96439.50;;;3.44;100.00
17054;BME280;8643;48.824;11.422;2023-03-31T00:11:39;96434.09;;;3.44;100.00
17054;BME280;8643;48.824;11.422;2023-03-31T00:14:08;96431.28;;;3.49;100.00
17054;BME280;8643;48.824;11.422;2023-03-31T00:16:38;96423.97;;;3.50;100.00
17054;BME280;8643;48.824;11.422;2023-03-31T00:19:08;96435.00;;;3.54;100.00
17054;BME280;8643;48.824;11.422;2023-03-31T00:21:44;96422.56;;;3.53;100.00
17054;BME280;8643;48.824;11.422;2023-03-31T00:24:14;96423.69;;;3.65;100.00
17054;BME280;8643;48.824;11.422;2023-03-31T00:26:45;96424.78;;;3.64;100.00
17054;BME280;8643;48.824;11.422;2023-03-31T00:29:14;96418.28;;;3.65;100.00
17054;BME280;8643;48.824;11.422;2023-03-31T00:31:42;96423.69;;;3.65;100.00
17054;BME280;8643;48.824;11.422;2023-03-31T00:34:11;96411.75;;;3.66;100.00
17054;BME280;8643;48.824;11.422;2023-03-31T00:36:40;96409.84;;;3.67;100.00
17054;BME280;8643;48.824;11.422;2023-03-31T00:39:15;96408.03;;;3.76;100.00
17054;BME280;8643;48.824;11.422;2023-03-31T00:41:46;96399.03;;;3.67;100.00
17054;BME280;8643;48.824;11.422;2023-03-31T00:44:18;96386.97;;;3.59;100.00
17054;BME280;8643;48.824;11.422;2023-03-31T00:46:54;96389.78;;;3.54;100.00
17054;BME280;8643;48.824;11.422;2023-03-31T00:49:28;96387.38;;;3.53;100.00
17054;BME280;8643;48.824;11.422;2023-03-31T00:52:02;96381.66;;;3.54;100.00
17054;BME280;8643;48.824;11.422;2023-03-31T00:54:34;96386.59;;;3.52;100.00
17054;BME280;8643;48.824;11.422;2023-03-31T00:57:05;96379.16;;;3.44;100.00
17054;BME280;8643;48.824;11.422;2023-03-31T00:59:41;96369.91;;;3.45;100.00
17054;BME280;8643;48.824;11.422;2023-03-31T01:02:14;96358.88;;;3.55;100.00
17054;BME280;8643;48.824;11.422;2023-03-31T01:04:47;96356.91;;;3.61;100.00
17054;BME280;8643;48.824;11.422;2023-03-31T01:07:26;96370.63;;;3.51;100.00
17054;BME280;8643;48.824;11.422;2023-03-31T01:09:59;96359.88;;;3.45;100.00
17054;BME280;8643;48.824;11.422;2023-03-31T01:12:33;96358.69;;;3.38;100.00
17054;BME280;8643;48.824;11.422;2023-03-31T01:15:06;96355.88;;;3.43;100.00
17054;BME280;8643;48.824;11.422;2023-03-31T01:17:35;96352.88;;;3.44;100.00
17054;BME280;8643;48.824;11.422;2023-03-31T01:20:15;96335.63;;;3.40;100.00
17054;BME280;8643;48.824;11.422;2023-03-31T01:23:28;96337.63;;;3.48;100.00
17054;BME280;8643;48.824;11.422;2023-03-31T01:26:46;96338.47;;;3.49;100.00
17054;BME280;8643;48.824;11.422;2023-03-31T01:29:58;96341.84;;;3.55;100.00
17054;BME280;8643;48.824;11.422;2023-03-31T01:33:07;96335.44;;;3.64;100.00
17054;BME280;8643;48.824;11.422;2023-03-31T01:36:12;96338.03;;;3.70;100.00
17054;BME280;8643;48.824;11.422;2023-03-31T01:39:12;96336.44;;;3.69;100.00
17054;BME280;8643;48.824;11.422;2023-03-31T01:41:58;96325.31;;;3.70;100.00
17054;BME280;8643;48.824;11.422;2023-03-31T01:44:36;96315.06;;;3.81;100.00
17054;BME280;8643;48.824;11.422;2023-03-31T01:47:13;96312.34;;;3.81;100.00
17054;BME280;8643;48.824;11.422;2023-03-31T01:49:50;96308.03;;;3.94;100.00
17054;BME280;8643;48.824;11.422;2023-03-31T01:52:26;96313.13;;;3.95;100.00
17054;BME280;8643;48.824;11.422;2023-03-31T01:55:06;96313.72;;;3.92;100.00
17054;BME280;8643;48.824;11.422;2023-03-31T01:57:44;96305.78;;;3.96;100.00
17054;BME280;8643;48.824;11.422;2023-03-31T02:00:19;96301.69;;;3.98;100.00
17054;BME280;8643;48.824;11.422;2023-03-31T02:02:56;96303.31;;;3.99;100.00
17054;BME280;8643;48.824;11.422;2023-03-31T02:05:31;96298.06;;;4.03;100.00
17054;BME280;8643;48.824;11.422;2023-03-31T02:08:07;96286.41;;;4.02;100.00
17054;BME280;8643;48.824;11.422;2023-03-31T02:10:39;96279.78;;;4.09;100.00
17054;BME280;8643;48.824;11.422;2023-03-31T02:13:13;96283.97;;;4.15;100.00
17054;BME280;8643;48.824;11.422;2023-03-31T02:15:46;96273.50;;;4.22;100.00
17054;BME280;8643;48.824;11.422;2023-03-31T02:18:22;96273.41;;;4.27;100.00
17054;BME280;8643;48.824;11.422;2023-03-31T02:20:55;96278.59;;;4.37;100.00
17054;BME280;8643;48.824;11.422;2023-03-31T02:23:28;96274.81;;;4.47;100.00
17054;BME280;8643;48.824;11.422;2023-03-31T02:26:03;96277.06;;;4.45;100.00
17054;BME280;8643;48.824;11.422;2023-03-31T02:28:36;96275.50;;;4.53;100.00
17054;BME280;8643;48.824;11.422;2023-03-31T02:31:16;96266.22;;;4.45;100.00
17054;BME280;8643;48.824;11.422;2023-03-31T02:33:49;96273.41;;;4.50;100.00
17054;BME280;8643;48.824;11.422;2023-03-31T02:36:18;96264.63;;;4.53;100.00
17054;BME280;8643;48.824;11.422;2023-03-31T02:38:54;96250.22;;;4.66;100.00
17054;BME280;8643;48.824;11.422;2023-03-31T02:41:27;96258.59;;;4.78;100.00
17054;BME280;8643;48.824;11.422;2023-03-31T02:43:57;96254.66;;;4.93;100.00
17054;BME280;8643;48.824;11.422;2023-03-31T02:46:27;96242.41;;;4.96;100.00
17054;BME280;8643;48.824;11.422;2023-03-31T02:49:02;96241.09;;;4.93;100.00
17054;BME280;8643;48.824;11.422;2023-03-31T02:52:08;96224.66;;;4.90;100.00
17054;BME280;8643;48.824;11.422;2023-03-31T02:55:32;96235.19;;;4.91;100.00
17054;BME280;8643;48.824;11.422;2023-03-31T02:58:38;96228.34;;;4.94;100.00
17054;BME280;8643;48.824;11.422;2023-03-31T03:01:42;96231.25;;;4.98;100.00
17054;BME280;8643;48.824;11.422;2023-03-31T03:04:52;96225.81;;;4.98;100.00
17054;BME280;8643;48.824;11.422;2023-03-31T03:07:35;96221.97;;;4.99;100.00
17054;BME280;8643;48.824;11.422;2023-03-31T03:10:21;96209.22;;;4.99;100.00
17054;BME280;8643;48.824;11.422;2023-03-31T03:12:58;96212.88;;;5.03;100.00
17054;BME280;8643;48.824;11.422;2023-03-31T03:15:34;96204.94;;;5.07;100.00
17054;BME280;8643;48.824;11.422;2023-03-31T03:18:06;96203.19;;;5.11;100.00
17054;BME280;8643;48.824;11.422;2023-03-31T03:20:34;96203.34;;;5.14;100.00
17054;BME280;8643;48.824;11.422;2023-03-31T03:23:03;96214.06;;;5.20;100.00
17054;BME280;8643;48.824;11.422;2023-03-31T03:25:31;96211.22;;;5.25;100.00
17054;BME280;8643;48.824;11.422;2023-03-31T03:28:00;96211.53;;;5.23;100.00
17054;BME280;8643;48.824;11.422;2023-03-31T03:30:29;96209.94;;;5.22;100.00
17054;BME280;8643;48.824;11.422;2023-03-31T03:32:57;96216.16;;;5.23;100.00
17054;BME280;8643;48.824;11.422;2023-03-31T03:35:28;96220.63;;;5.27;100.00
17054;BME280;8643;48.824;11.422;2023-03-31T03:37:56;96212.03;;;5.34;100.00
17054;BME280;8643;48.824;11.422;2023-03-31T03:40:25;96212.50;;;5.36;100.00
17054;BME280;8643;48.824;11.422;2023-03-31T03:42:53;96202.47;;;5.37;100.00
17054;BME280;8643;48.824;11.422;2023-03-31T03:45:22;96201.66;;;5.36;100.00
17054;BME280;8643;48.824;11.422;2023-03-31T03:47:50;96204.19;;;5.32;100.00
17054;BME280;8643;48.824;11.422;2023-03-31T03:50:19;96199.09;;;5.31;100.00
17054;BME280;8643;48.824;11.422;2023-03-31T03:52:49;96194.16;;;5.33;100.00
17054;BME280;8643;48.824;11.422;2023-03-31T03:55:17;96187.75;;;5.29;100.00
17054;BME280;8643;48.824;11.422;2023-03-31T03:57:46;96180.41;;;5.29;100.00
17054;BME280;8643;48.824;11.422;2023-03-31T04:00:15;96174.19;;;5.29;100.00
17054;BME280;8643;48.824;11.422;2023-03-31T04:02:44;96171.78;;;5.27;100.00
17054;BME280;8643;48.824;11.422;2023-03-31T04:05:13;96162.84;;;5.27;100.00
17054;BME280;8643;48.824;11.422;2023-03-31T04:07:41;96164.78;;;5.26;100.00
17054;BME280;8643;48.824;11.422;2023-03-31T04:10:11;96158.22;;;5.27;100.00
17054;BME280;8643;48.824;11.422;2023-03-31T04:12:40;96156.94;;;5.25;100.00
17054;BME280;8643;48.824;11.422;2023-03-31T04:15:09;96148.13;;;5.28;100.00
17054;BME280;8643;48.824;11.422;2023-03-31T04:17:38;96148.47;;;5.26;100.00
17054;BME280;8643;48.824;11.422;2023-03-31T04:20:09;96139.84;;;5.24;100.00
17054;BME280;8643;48.824;11.422;2023-03-31T04:22:39;96135.03;;;5.21;100.00
17054;BME280;8643;48.824;11.422;2023-03-31T04:25:11;96127.09;;;5.25;100.00
17054;BME280;8643;48.824;11.422;2023-03-31T04:27:43;96112.06;;;5.27;100.00
17054;BME280;8643;48.824;11.422;2023-03-31T04:30:16;96102.34;;;5.26;100.00
17054;BME280;8643;48.824;11.422;2023-03-31T04:32:51;96094.66;;;5.28;100.00
17054;BME280;8643;48.824;11.422;2023-03-31T04:35:22;96100.56;;;5.30;100.00
17054;BME280;8643;48.824;11.422;2023-03-31T04:37:53;96093.41;;;5.35;100.00
17054;BME280;8643;48.824;11.422;2023-03-31T04:40:26;96090.50;;;5.31;100.00
17054;BME280;8643;48.824;11.422;2023-03-31T04:42:55;96082.34;;;5.31;100.00
17054;BME280;8643;48.824;11.422;2023-03-31T04:45:24;96075.66;;;5.28;100.00
17054;BME280;8643;48.824;11.422;2023-03-31T04:47:52;96062.72;;;5.25;100.00
17054;BME280;8643;48.824;11.422;2023-03-31T04:50:21;96051.25;;;5.28;100.00
17054;BME280;8643;48.824;11.422;2023-03-31T04:52:50;96048.38;;;5.25;100.00
17054;BME280;8643;48.824;11.422;2023-03-31T04:55:18;96019.63;;;5.24;100.00
17054;BME280;8643;48.824;11.422;2023-03-31T04:57:48;96017.38;;;5.26;100.00
17054;BME280;8643;48.824;11.422;2023-03-31T05:00:19;95999.16;;;5.44;100.00
17054;BME280;8643;48.824;11.422;2023-03-31T05:02:47;95991.50;;;5.55;100.00
17054;BME280;8643;48.824;11.422;2023-03-31T05:05:16;95986.19;;;5.58;100.00
17054;BME280;8643;48.824;11.422;2023-03-31T05:07:45;95989.72;;;5.67;100.00
17054;BME280;8643;48.824;11.422;2023-03-31T05:10:13;95985.53;;;5.79;100.00
17054;BME280;8643;48.824;11.422;2023-03-31T05:12:42;95973.97;;;5.91;100.00
17054;BME280;8643;48.824;11.422;2023-03-31T05:15:12;95968.06;;;5.97;100.00
17054;BME280;8643;48.824;11.422;2023-03-31T05:17:40;95974.09;;;6.03;100.00
17054;BME280;8643;48.824;11.422;2023-03-31T05:20:11;95966.44;;;6.05;100.00
17054;BME280;8643;48.824;11.422;2023-03-31T05:22:41;95962.25;;;6.08;100.00
17054;BME280;8643;48.824;11.422;2023-03-31T05:25:12;95964.97;;;6.08;100.00
17054;BME280;8643;48.824;11.422;2023-03-31T05:27:46;95953.91;;;6.13;100.00
17054;BME280;8643;48.824;11.422;2023-03-31T05:30:17;95948.66;;;6.16;100.00
17054;BME280;8643;48.824;11.422;2023-03-31T05:32:45;95952.34;;;6.12;100.00
17054;BME280;8643;48.824;11.422;2023-03-31T05:35:14;95943.53;;;6.15;100.00
17054;BME280;8643;48.824;11.422;2023-03-31T05:37:43;95936.50;;;6.14;100.00
17054;BME280;8643;48.824;11.422;2023-03-31T05:40:12;95934.25;;;6.16;100.00
17054;BME280;8643;48.824;11.422;2023-03-31T05:42:40;95923.84;;;6.18;100.00
17054;BME280;8643;48.824;11.422;2023-03-31T05:45:09;95930.59;;;6.12;100.00
17054;BME280;8643;48.824;11.422;2023-03-31T05:47:40;95919.88;;;6.15;100.00
17054;BME280;8643;48.824;11.422;2023-03-31T05:50:09;95925.94;;;6.21;100.00
17054;BME280;8643;48.824;11.422;2023-03-31T05:52:40;95914.69;;;6.22;100.00
17054;BME280;8643;48.824;11.422;2023-03-31T05:55:09;95911.31;;;6.26;100.00
17054;BME280;8643;48.824;11.422;2023-03-31T05:57:39;95901.84;;;6.32;100.00
17054;BME280;8643;48.824;11.422;2023-03-31T06:00:09;95899.69;;;6.46;100.00
17054;BME280;8643;48.824;11.422;2023-03-31T06:02:39;95877.94;;;6.67;100.00
17054;BME280;8643;48.824;11.422;2023-03-31T06:05:09;95869.31;;;6.86;100.00
17054;BME280;8643;48.824;11.422;2023-03-31T06:07:38;95874.25;;;7.05;100.00
17054;BME280;8643;48.824;11.422;2023-03-31T06:10:08;95876.22;;;7.17;100.00
17054;BME280;8643;48.824;11.422;2023-03-31T06:12:37;95869.75;;;7.22;100.00
17054;BME280;8643;48.824;11.422;2023-03-31T06:15:07;95869.75;;;7.22;100.00
17054;BME280;8643;48.824;11.422;2023-03-31T06:17:38;95869.31;;;7.20;100.00
17054;BME280;8643;48.824;11.422;2023-03-31T06:20:08;95870.56;;;7.22;100.00
17054;BME280;8643;48.824;11.422;2023-03-31T06:22:54;95866.69;;;7.11;100.00
17054;BME280;8643;48.824;11.422;2023-03-31T06:25:22;95865.06;;;7.10;100.00
17054;BME280;8643;48.824;11.422;2023-03-31T06:27:51;95857.69;;;7.10;100.00
17054;BME280;8643;48.824;11.422;2023-03-31T06:30:20;95860.34;;;7.19;100.00
17054;BME280;8643;48.824;11.422;2023-03-31T06:32:50;95845.91;;;7.19;100.00
17054;BME280;8643;48.824;11.422;2023-03-31T06:35:19;95841.28;;;7.19;100.00
17054;BME280;8643;48.824;11.422;2023-03-31T06:37:48;95833.47;;;7.18;100.00
17054;BME280;8643;48.824;11.422;2023-03-31T06:40:16;95843.91;;;7.15;100.00
17054;BME280;8643;48.824;11.422;2023-03-31T06:42:45;95836.06;;;7.14;100.00
17054;BME280;8643;48.824;11.422;2023-03-31T06:45:15;95837.84;;;7.10;100.00
17054;BME280;8643;48.824;11.422;2023-03-31T06:47:44;95831.97;;;7.08;100.00
17054;BME280;8643;48.824;11.422;2023-03-31T06:50:14;95838.31;;;7.12;100.00
17054;BME280;8643;48.824;11.422;2023-03-31T06:52:43;95838.97;;;7.09;100.00
17054;BME280;8643;48.824;11.422;2023-03-31T06:55:12;95844.31;;;7.05;100.00
17054;BME280;8643;48.824;11.422;2023-03-31T06:57:43;95840.34;;;7.03;100.00
17054;BME280;8643;48.824;11.422;2023-03-31T07:00:13;95857.47;;;7.03;100.00
17054;BME280;8643;48.824;11.422;2023-03-31T07:02:42;95862.13;;;7.03;100.00
17054;BME280;8643;48.824;11.422;2023-03-31T07:05:11;95875.38;;;7.04;100.00
17054;BME280;8643;48.824;11.422;2023-03-31T07:07:41;95890.56;;;7.05;100.00
17054;BME280;8643;48.824;11.422;2023-03-31T07:10:12;95881.50;;;7.01;100.00
17054;BME280;8643;48.824;11.422;2023-03-31T07:12:40;95883.75;;;6.99;100.00
17054;BME280;8643;48.824;11.422;2023-03-31T07:15:10;95885.00;;;7.02;100.00
17054;BME280;8643;48.824;11.422;2023-03-31T07:17:38;95880.69;;;7.01;100.00
17054;BME280;8643;48.824;11.422;2023-03-31T07:20:09;95891.25;;;7.02;100.00
17054;BME280;8643;48.824;11.422;2023-03-31T07:22:45;95876.84;;;7.02;100.00
17054;BME280;8643;48.824;11.422;2023-03-31T07:25:15;95883.56;;;7.04;100.00
17054;BME280;8643;48.824;11.422;2023-03-31T07:27:44;95882.06;;;7.07;100.00
17054;BME280;8643;48.824;11.422;2023-03-31T07:30:16;95883.22;;;7.06;100.00
17054;BME280;8643;48.824;11.422;2023-03-31T07:32:47;95873.91;;;7.07;100.00
17054;BME280;8643;48.824;11.422;2023-03-31T07:35:17;95877.09;;;7.09;100.00
17054;BME280;8643;48.824;11.422;2023-03-31T07:37:48;95859.06;;;7.04;100.00
17054;BME280;8643;48.824;11.422;2023-03-31T07:40:20;95856.47;;;7.08;100.00
17054;BME280;8643;48.824;11.422;2023-03-31T07:42:50;95869.72;;;7.09;100.00
17054;BME280;8643;48.824;11.422;2023-03-31T07:45:21;95857.03;;;7.13;100.00
17054;BME280;8643;48.824;11.422;2023-03-31T07:47:50;95862.13;;;7.15;100.00
17054;BME280;8643;48.824;11.422;2023-03-31T07:50:21;95844.22;;;7.14;100.00
17054;BME280;8643;48.824;11.422;2023-03-31T07:52:53;95832.66;;;7.17;100.00
17054;BME280;8643;48.824;11.422;2023-03-31T07:55:22;95824.97;;;7.19;100.00
17054;BME280;8643;48.824;11.422;2023-03-31T07:57:52;95812.00;;;7.16;100.00
17054;BME280;8643;48.824;11.422;2023-03-31T08:00:21;95811.91;;;7.25;100.00
17054;BME280;8643;48.824;11.422;2023-03-31T08:02:50;95790.59;;;7.27;100.00
17054;BME280;8643;48.824;11.422;2023-03-31T08:05:20;95784.47;;;7.42;100.00
17054;BME280;8643;48.824;11.422;2023-03-31T08:07:49;95769.84;;;7.47;100.00
17054;BME280;8643;48.824;11.422;2023-03-31T08:10:25;95758.94;;;7.59;100.00
17054;BME280;8643;48.824;11.422;2023-03-31T08:12:54;95753.16;;;7.61;100.00
17054;BME280;8643;48.824;11.422;2023-03-31T08:15:22;95733.28;;;7.60;100.00
17054;BME280;8643;48.824;11.422;2023-03-31T08:17:51;95727.25;;;7.67;100.00
17054;BME280;8643;48.824;11.422;2023-03-31T08:20:23;95718.06;;;7.71;100.00
17054;BME280;8643;48.824;11.422;2023-03-31T08:22:53;95710.44;;;7.77;100.00
17054;BME280;8643;48.824;11.422;2023-03-31T08:25:23;95690.44;;;7.85;100.00
17054;BME280;8643;48.824;11.422;2023-03-31T08:27:52;95679.34;;;7.78;100.00
17054;BME280;8643;48.824;11.422;2023-03-31T08:30:22;95693.53;;;7.71;100.00
17054;BME280;8643;48.824;11.422;2023-03-31T08:32:51;95696.28;;;7.71;100.00
17054;BME280;8643;48.824;11.422;2023-03-31T08:35:19;95726.81;;;7.65;100.00
17054;BME280;8643;48.824;11.422;2023-03-31T08:37:48;95762.25;;;7.65;100.00
17054;BME280;8643;48.824;11.422;2023-03-31T08:40:23;95766.09;;;7.64;100.00
17054;BME280;8643;48.824;11.422;2023-03-31T08:42:56;95790.59;;;7.64;100.00
17054;BME280;8643;48.824;11.422;2023-03-31T08:45:31;95809.13;;;7.58;100.00
17054;BME280;8643;48.824;11.422;2023-03-31T08:48:08;95847.59;;;7.57;100.00
17054;BME280;8643;48.824;11.422;2023-03-31T08:50:49;95865.84;;;7.56;100.00
17054;BME280;8643;48.824;11.422;2023-03-31T08:53:25;95847.03;;;7.63;100.00
17054;BME280;8643;48.824;11.422;2023-03-31T08:55:58;95813.66;;;7.79;100.00
17054;BME280;8643;48.824;11.422;2023-03-31T08:58:35;95809.56;;;7.97;100.00
17054;BME280;8643;48.824;11.422;2023-03-31T09:01:21;95794.91;;;8.02;100.00
17054;BME280;8643;48.824;11.422;2023-03-31T09:04:17;95766.16;;;8.04;100.00
17054;BME280;8643;48.824;11.422;2023-03-31T09:06:56;95753.53;;;8.12;100.00
17054;BME280;8643;48.824;11.422;2023-03-31T09:09:43;95739.63;;;8.30;100.00
17054;BME280;8643;48.824;11.422;2023-03-31T09:12:20;95724.94;;;8.47;100.00
17054;BME280;8643;48.824;11.422;2023-03-31T09:14:56;95701.81;;;8.56;100.00
17054;BME280;8643;48.824;11.422;2023-03-31T09:17:32;95699.34;;;8.51;100.00
17054;BME280;8643;48.824;11.422;2023-03-31T09:20:11;95713.84;;;8.55;100.00
17054;BME280;8643;48.824;11.422;2023-03-31T09:22:46;95716.38;;;8.76;100.00
17054;BME280;8643;48.824;11.422;2023-03-31T09:25:19;95705.13;;;8.94;100.00
17054;BME280;8643;48.824;11.422;2023-03-31T09:27:55;95708.13;;;9.05;100.00
17054;BME280;8643;48.824;11.422;2023-03-31T09:30:28;95714.31;;;9.17;100.00
17054;BME280;8643;48.824;11.422;2023-03-31T09:33:09;95713.56;;;9.21;100.00
17054;BME280;8643;48.824;11.422;2023-03-31T09:35:38;95702.41;;;9.26;100.00
17054;BME280;8643;48.824;11.422;2023-03-31T09:38:10;95697.00;;;10.75;100.00
17054;BME280;8643;48.824;11.422;2023-03-31T09:40:39;95702.84;;;12.23;100.00
17054;BME280;8643;48.824;11.422;2023-03-31T09:43:20;95693.81;;;12.56;100.00
17054;BME280;8643;48.824;11.422;2023-03-31T09:45:50;95689.13;;;12.94;100.00
17054;BME280;8643;48.824;11.422;2023-03-31T09:48:41;95674.16;;;12.88;100.00
17054;BME280;8643;48.824;11.422;2023-03-31T09:51:23;95674.50;;;13.76;100.00
17054;BME280;8643;48.824;11.422;2023-03-31T09:54:07;95662.28;;;14.58;100.00
17054;BME280;8643;48.824;11.422;2023-03-31T09:56:47;95662.75;;;13.83;100.00
17054;BME280;8643;48.824;11.422;2023-03-31T09:59:22;95653.19;;;13.62;100.00
17054;BME280;8643;48.824;11.422;2023-03-31T10:02:01;95663.91;;;13.82;100.00
17054;BME280;8643;48.824;11.422;2023-03-31T10:04:33;95662.56;;;14.27;100.00
17054;BME280;8643;48.824;11.422;2023-03-31T10:07:04;95661.09;;;13.71;100.00
17054;BME280;8643;48.824;11.422;2023-03-31T10:09:38;95640.81;;;13.97;100.00
17054;BME280;8643;48.824;11.422;2023-03-31T10:12:14;95638.22;;;14.40;100.00
17054;BME280;8643;48.824;11.422;2023-03-31T10:14:50;95644.25;;;14.75;100.00
17054;BME280;8643;48.824;11.422;2023-03-31T10:17:22;95634.47;;;15.02;100.00
17054;BME280;8643;48.824;11.422;2023-03-31T10:19:54;95646.25;;;13.90;100.00
17054;BME280;8643;48.824;11.422;2023-03-31T10:22:29;95648.56;;;14.65;100.00
17054;BME280;8643;48.824;11.422;2023-03-31T10:25:13;95641.91;;;14.80;100.00
17054;BME280;8643;48.824;11.422;2023-03-31T10:27:47;95635.66;;;15.48;100.00
17054;BME280;8643;48.824;11.422;2023-03-31T10:30:23;95630.91;;;15.52;96.42
17054;BME280;8643;48.824;11.422;2023-03-31T10:32:53;95623.00;;;15.69;98.48
17054;BME280;8643;48.824;11.422;2023-03-31T10:35:26;95624.63;;;15.41;97.07
17054;BME280;8643;48.824;11.422;2023-03-31T10:38:02;95621.06;;;15.44;97.42
17054;BME280;8643;48.824;11.422;2023-03-31T10:40:34;95623.84;;;15.26;96.44
17054;BME280;8643;48.824;11.422;2023-03-31T10:43:13;95615.91;;;15.75;88.99
17054;BME280;8643;48.824;11.422;2023-03-31T10:45:48;95621.09;;;15.37;90.71
17054;BME280;8643;48.824;11.422;2023-03-31T10:48:23;95621.34;;;16.07;91.82
17054;BME280;8643;48.824;11.422;2023-03-31T10:50:53;95624.41;;;16.38;88.07
17054;BME280;8643;48.824;11.422;2023-03-31T10:53:22;95608.06;;;14.83;92.33
17054;BME280;8643;48.824;11.422;2023-03-31T10:56:24;95594.22;;;15.70;92.42
17054;BME280;8643;48.824;11.422;2023-03-31T10:59:22;95592.31;;;15.06;88.68
17054;BME280;8643;48.824;11.422;2023-03-31T11:02:20;95582.09;;;15.06;90.41
17054;BME280;8643;48.824;11.422;2023-03-31T11:05:07;95569.06;;;14.78;86.68
17054;BME280;8643;48.824;11.422;2023-03-31T11:07:58;95552.53;;;15.25;85.41
17054;BME280;8643;48.824;11.422;2023-03-31T11:10:57;95545.06;;;16.39;83.43
17054;BME280;8643;48.824;11.422;2023-03-31T11:13:38;95541.06;;;15.51;81.89
17054;BME280;8643;48.824;11.422;2023-03-31T11:16:20;95544.59;;;17.07;79.80
17054;BME280;8643;48.824;11.422;2023-03-31T11:19:09;95517.63;;;16.70;75.02
17054;BME280;8643;48.824;11.422;2023-03-31T11:21:56;95539.19;;;16.93;74.36
17054;BME280;8643;48.824;11.422;2023-03-31T11:24:46;95542.44;;;16.77;75.80
17054;BME280;8643;48.824;11.422;2023-03-31T11:27:37;95530.19;;;16.22;76.87
17054;BME280;8643;48.824;11.422;2023-03-31T11:30:23;95532.09;;;14.72;87.74
17054;BME280;8643;48.824;11.422;2023-03-31T11:33:05;95536.25;;;13.97;90.12
17054;BME280;8643;48.824;11.422;2023-03-31T11:36:06;95544.94;;;14.17;89.85
17054;BME280;8643;48.824;11.422;2023-03-31T11:38:53;95541.88;;;14.44;84.05
17054;BME280;8643;48.824;11.422;2023-03-31T11:41:32;95525.72;;;14.28;86.36
17054;BME280;8643;48.824;11.422;2023-03-31T11:44:05;95512.28;;;15.60;79.88
17054;BME280;8643;48.824;11.422;2023-03-31T11:46:41;95507.28;;;17.99;69.69
17054;BME280;8643;48.824;11.422;2023-03-31T11:49:18;95490.91;;;17.77;68.90
17054;BME280;8643;48.824;11.422;2023-03-31T11:51:54;95487.13;;;17.26;63.68
17054;BME280;8643;48.824;11.422;2023-03-31T11:54:33;95469.25;;;18.30;61.69
17054;BME280;8643;48.824;11.422;2023-03-31T11:57:13;95465.00;;;18.76;63.45
17054;BME280;8643;48.824;11.422;2023-03-31T11:59:53;95468.75;;;18.66;60.10
17054;BME280;8643;48.824;11.422;2023-03-31T12:02:37;95457.38;;;18.84;57.36
17054;BME280;8643;48.824;11.422;2023-03-31T12:05:11;95464.63;;;16.82;62.39
17054;BME280;8643;48.824;11.422;2023-03-31T12:07:50;95454.28;;;16.44;63.16
17054;BME280;8643;48.824;11.422;2023-03-31T12:10:30;95454.47;;;15.20;65.76
17054;BME280;8643;48.824;11.422;2023-03-31T12:13:16;95447.09;;;16.50;62.41
17054;BME280;8643;48.824;11.422;2023-03-31T12:15:59;95441.03;;;15.33;58.28
17054;BME280;8643;48.824;11.422;2023-03-31T12:18:35;95433.59;;;15.23;62.65
17054;BME280;8643;48.824;11.422;2023-03-31T12:21:06;95425.28;;;15.30;62.60
17054;BME280;8643;48.824;11.422;2023-03-31T12:23:43;95416.75;;;14.84;66.34
17054;BME280;8643;48.824;11.422;2023-03-31T12:26:30;95438.00;;;14.23;66.21
17054;BME280;8643;48.824;11.422;2023-03-31T12:29:16;95437.97;;;14.19;63.48
17054;BME280;8643;48.824;11.422;2023-03-31T12:31:52;95425.41;;;16.53;57.99
17054;BME280;8643;48.824;11.422;2023-03-31T12:34:25;95425.16;;;17.88;57.30
17054;BME280;8643;48.824;11.422;2023-03-31T12:40:33;95406.22;;;18.10;55.51
17054;BME280;8643;48.824;11.422;2023-03-31T12:43:21;95396.44;;;18.06;57.22
17054;BME280;8643;48.824;11.422;2023-03-31T12:46:05;95392.44;;;18.34;54.85
17054;BME280;8643;48.824;11.422;2023-03-31T12:48:57;95404.00;;;17.71;53.53
17054;BME280;8643;48.824;11.422;2023-03-31T12:51:50;95410.91;;;17.90;54.11
17054;BME280;8643;48.824;11.422;2023-03-31T12:55:08;95406.91;;;15.90;58.22
17054;BME280;8643;48.824;11.422;2023-03-31T12:57:40;95398.19;;;16.51;55.55
17054;BME280;8643;48.824;11.422;2023-03-31T13:00:24;95391.25;;;15.65;59.21
17054;BME280;8643;48.824;11.422;2023-03-31T13:06:51;95460.00;;;14.12;65.87
17054;BME280;8643;48.824;11.422;2023-03-31T13:09:46;95571.25;;;11.12;93.29
17054;BME280;8643;48.824;11.422;2023-03-31T13:12:21;95565.31;;;8.69;100.00
17054;BME280;8643;48.824;11.422;2023-03-31T13:14:54;95577.84;;;8.25;100.00
17054;BME280;8643;48.824;11.422;2023-03-31T13:17:29;95576.84;;;8.18;100.00
17054;BME280;8643;48.824;11.422;2023-03-31T13:20:29;95571.38;;;8.18;100.00
17054;BME280;8643;48.824;11.422;2023-03-31T13:23:18;95564.13;;;8.38;100.00
17054;BME280;8643;48.824;11.422;2023-03-31T13:25:49;95569.94;;;9.00;100.00
17054;BME280;8643;48.824;11.422;2023-03-31T13:28:39;95534.72;;;10.32;100.00
17054;BME280;8643;48.824;11.422;2023-03-31T13:31:12;95551.53;;;11.03;100.00
17054;BME280;8643;48.824;11.422;2023-03-31T13:33:56;95552.44;;;11.11;100.00
17054;BME280;8643;48.824;11.422;2023-03-31T13:37:06;95577.31;;;10.75;100.00
17054;BME280;8643;48.824;11.422;2023-03-31T13:40:33;95568.88;;;9.99;100.00
17054;BME280;8643;48.824;11.422;2023-03-31T13:43:44;95553.28;;;9.80;100.00
17054;BME280;8643;48.824;11.422;2023-03-31T13:49:56;95530.53;;;12.43;100.00
17054;BME280;8643;48.824;11.422;2023-03-31T13:52:42;95528.56;;;12.88;100.00
17054;BME280;8643;48.824;11.422;2023-03-31T13:55:43;95500.53;;;14.15;99.78
17054;BME280;8643;48.824;11.422;2023-03-31T13:58:43;95488.41;;;14.88;86.82